sensor_id;sensor_type;location;lat;lon;timestamp;P1;durP1;ratioP1;P2;durP2;ratioP2
20393;SDS011;10356;50.544;9.642;2024-01-30T00:01:00;21.03;;;12.17;;
20393;SDS011;10356;50.544;9.642;2024-01-30T00:03:27;18.53;;;12.33;;
20393;SDS011;10356;50.544;9.642;2024-01-30T00:05:54;21.97;;;11.93;;
20393;SDS011;10356;50.544;9.642;2024-01-30T00:08:22;17.07;;;10.67;;
20393;SDS011;10356;50.544;9.642;2024-01-30T00:10:49;21.17;;;11.57;;
20393;SDS011;10356;50.544;9.642;2024-01-30T00:13:15;21.00;;;11.17;;
20393;SDS011;10356;50.544;9.642;2024-01-30T00:15:44;18.13;;;10.63;;
20393;SDS011;10356;50.544;9.642;2024-01-30T00:18:10;16.93;;;11.47;;
20393;SDS011;10356;50.544;9.642;2024-01-30T00:20:37;17.97;;;11.63;;
20393;SDS011;10356;50.544;9.642;2024-01-30T00:23:04;17.07;;;10.97;;
20393;SDS011;10356;50.544;9.642;2024-01-30T00:25:31;17.33;;;11.73;;
20393;SDS011;10356;50.544;9.642;2024-01-30T00:27:58;19.80;;;11.37;;
20393;SDS011;10356;50.544;9.642;2024-01-30T00:30:24;24.47;;;12.50;;
20393;SDS011;10356;50.544;9.642;2024-01-30T00:32:51;19.73;;;12.03;;
20393;SDS011;10356;50.544;9.642;2024-01-30T00:35:17;17.07;;;10.80;;
20393;SDS011;10356;50.544;9.642;2024-01-30T00:37:44;18.50;;;11.97;;
20393;SDS011;10356;50.544;9.642;2024-01-30T00:40:10;17.63;;;11.03;;
20393;SDS011;10356;50.544;9.642;2024-01-30T00:42:41;20.00;;;11.53;;
20393;SDS011;10356;50.544;9.642;2024-01-30T00:45:11;18.50;;;11.60;;
20393;SDS011;10356;50.544;9.642;2024-01-30T00:47:38;17.60;;;11.53;;
20393;SDS011;10356;50.544;9.642;2024-01-30T00:50:05;18.73;;;11.60;;
20393;SDS011;10356;50.544;9.642;2024-01-30T00:52:32;15.97;;;10.47;;
20393;SDS011;10356;50.544;9.642;2024-01-30T00:54:58;19.33;;;11.67;;
20393;SDS011;10356;50.544;9.642;2024-01-30T00:57:25;17.87;;;11.23;;
20393;SDS011;10356;50.544;9.642;2024-01-30T00:59:53;20.80;;;12.37;;
20393;SDS011;10356;50.544;9.642;2024-01-30T01:02:19;19.33;;;11.57;;
20393;SDS011;10356;50.544;9.642;2024-01-30T01:04:46;16.87;;;11.57;;
20393;SDS011;10356;50.544;9.642;2024-01-30T01:07:12;19.43;;;12.03;;
20393;SDS011;10356;50.544;9.642;2024-01-30T01:09:39;18.33;;;10.67;;
20393;SDS011;10356;50.544;9.642;2024-01-30T01:12:05;16.97;;;10.67;;
20393;SDS011;10356;50.544;9.642;2024-01-30T01:14:32;20.27;;;11.37;;
20393;SDS011;10356;50.544;9.642;2024-01-30T01:17:00;19.93;;;12.23;;
20393;SDS011;10356;50.544;9.642;2024-01-30T01:19:27;19.93;;;11.33;;
20393;SDS011;10356;50.544;9.642;2024-01-30T01:21:53;19.13;;;11.63;;
20393;SDS011;10356;50.544;9.642;2024-01-30T01:24:19;21.07;;;12.20;;
20393;SDS011;10356;50.544;9.642;2024-01-30T01:26:46;19.87;;;12.37;;
20393;SDS011;10356;50.544;9.642;2024-01-30T01:29:12;23.00;;;12.13;;
20393;SDS011;10356;50.544;9.642;2024-01-30T01:31:40;17.37;;;11.20;;
20393;SDS011;10356;50.544;9.642;2024-01-30T01:34:10;22.00;;;11.50;;
20393;SDS011;10356;50.544;9.642;2024-01-30T01:36:36;20.30;;;12.80;;
20393;SDS011;10356;50.544;9.642;2024-01-30T01:39:03;17.70;;;11.40;;
20393;SDS011;10356;50.544;9.642;2024-01-30T01:41:30;24.77;;;12.00;;
20393;SDS011;10356;50.544;9.642;2024-01-30T01:43:57;20.40;;;12.83;;
20393;SDS011;10356;50.544;9.642;2024-01-30T01:46:26;19.60;;;11.90;;
20393;SDS011;10356;50.544;9.642;2024-01-30T01:48:53;21.60;;;12.30;;
20393;SDS011;10356;50.544;9.642;2024-01-30T01:51:22;21.00;;;12.70;;
20393;SDS011;10356;50.544;9.642;2024-01-30T01:53:50;21.93;;;11.70;;
20393;SDS011;10356;50.544;9.642;2024-01-30T01:56:17;18.73;;;12.00;;
20393;SDS011;10356;50.544;9.642;2024-01-30T01:58:43;19.60;;;11.40;;
20393;SDS011;10356;50.544;9.642;2024-01-30T02:01:12;19.30;;;12.13;;
20393;SDS011;10356;50.544;9.642;2024-01-30T02:03:39;23.03;;;13.03;;
20393;SDS011;10356;50.544;9.642;2024-01-30T02:06:07;20.93;;;12.40;;
20393;SDS011;10356;50.544;9.642;2024-01-30T02:08:35;20.23;;;13.00;;
20393;SDS011;10356;50.544;9.642;2024-01-30T02:11:03;24.83;;;13.13;;
20393;SDS011;10356;50.544;9.642;2024-01-30T02:13:30;19.67;;;12.97;;
20393;SDS011;10356;50.544;9.642;2024-01-30T02:15:56;18.97;;;12.30;;
20393;SDS011;10356;50.544;9.642;2024-01-30T02:18:23;20.97;;;12.97;;
20393;SDS011;10356;50.544;9.642;2024-01-30T02:20:49;26.90;;;14.30;;
20393;SDS011;10356;50.544;9.642;2024-01-30T02:23:20;26.20;;;13.70;;
20393;SDS011;10356;50.544;9.642;2024-01-30T02:25:50;21.40;;;13.57;;
20393;SDS011;10356;50.544;9.642;2024-01-30T02:28:18;19.67;;;12.20;;
20393;SDS011;10356;50.544;9.642;2024-01-30T02:30:45;23.03;;;12.60;;
20393;SDS011;10356;50.544;9.642;2024-01-30T02:33:12;22.03;;;12.47;;
20393;SDS011;10356;50.544;9.642;2024-01-30T02:35:39;21.43;;;12.67;;
20393;SDS011;10356;50.544;9.642;2024-01-30T02:38:06;22.50;;;13.40;;
20393;SDS011;10356;50.544;9.642;2024-01-30T02:40:33;20.17;;;12.23;;
20393;SDS011;10356;50.544;9.642;2024-01-30T02:43:01;20.53;;;13.10;;
20393;SDS011;10356;50.544;9.642;2024-01-30T02:45:29;25.00;;;13.97;;
20393;SDS011;10356;50.544;9.642;2024-01-30T02:47:55;23.73;;;13.13;;
20393;SDS011;10356;50.544;9.642;2024-01-30T02:50:22;25.87;;;12.90;;
20393;SDS011;10356;50.544;9.642;2024-01-30T02:52:48;20.47;;;12.37;;
20393;SDS011;10356;50.544;9.642;2024-01-30T02:55:15;21.73;;;13.30;;
20393;SDS011;10356;50.544;9.642;2024-01-30T02:57:43;19.80;;;11.80;;
20393;SDS011;10356;50.544;9.642;2024-01-30T03:00:10;19.53;;;11.70;;
20393;SDS011;10356;50.544;9.642;2024-01-30T03:02:37;20.50;;;12.17;;
20393;SDS011;10356;50.544;9.642;2024-01-30T03:05:05;20.53;;;13.03;;
20393;SDS011;10356;50.544;9.642;2024-01-30T03:07:33;27.57;;;14.97;;
20393;SDS011;10356;50.544;9.642;2024-01-30T03:09:59;19.73;;;12.20;;
20393;SDS011;10356;50.544;9.642;2024-01-30T03:12:26;19.67;;;12.07;;
20393;SDS011;10356;50.544;9.642;2024-01-30T03:14:54;17.17;;;11.60;;
20393;SDS011;10356;50.544;9.642;2024-01-30T03:17:20;18.13;;;12.50;;
20393;SDS011;10356;50.544;9.642;2024-01-30T03:19:47;21.33;;;12.87;;
20393;SDS011;10356;50.544;9.642;2024-01-30T03:22:13;23.00;;;13.33;;
20393;SDS011;10356;50.544;9.642;2024-01-30T03:24:40;19.40;;;12.03;;
20393;SDS011;10356;50.544;9.642;2024-01-30T03:27:06;21.10;;;13.30;;
20393;SDS011;10356;50.544;9.642;2024-01-30T03:29:33;17.90;;;11.77;;
20393;SDS011;10356;50.544;9.642;2024-01-30T03:32:00;20.07;;;12.67;;
20393;SDS011;10356;50.544;9.642;2024-01-30T03:34:28;20.57;;;11.80;;
20393;SDS011;10356;50.544;9.642;2024-01-30T03:36:55;19.23;;;12.27;;
20393;SDS011;10356;50.544;9.642;2024-01-30T03:39:22;17.47;;;12.43;;
20393;SDS011;10356;50.544;9.642;2024-01-30T03:41:49;20.07;;;11.30;;
20393;SDS011;10356;50.544;9.642;2024-01-30T03:44:15;18.47;;;11.90;;
20393;SDS011;10356;50.544;9.642;2024-01-30T03:46:42;19.63;;;11.87;;
20393;SDS011;10356;50.544;9.642;2024-01-30T03:49:10;22.63;;;11.80;;
20393;SDS011;10356;50.544;9.642;2024-01-30T03:51:37;17.77;;;11.73;;
20393;SDS011;10356;50.544;9.642;2024-01-30T03:54:03;21.00;;;12.43;;
20393;SDS011;10356;50.544;9.642;2024-01-30T03:56:29;20.77;;;11.70;;
20393;SDS011;10356;50.544;9.642;2024-01-30T03:58:56;25.03;;;14.33;;
20393;SDS011;10356;50.544;9.642;2024-01-30T04:01:23;22.87;;;13.37;;
20393;SDS011;10356;50.544;9.642;2024-01-30T04:03:50;23.70;;;12.93;;
20393;SDS011;10356;50.544;9.642;2024-01-30T04:06:18;18.47;;;12.13;;
20393;SDS011;10356;50.544;9.642;2024-01-30T04:08:44;27.23;;;13.60;;
20393;SDS011;10356;50.544;9.642;2024-01-30T04:11:11;21.17;;;12.60;;
20393;SDS011;10356;50.544;9.642;2024-01-30T04:13:37;19.00;;;12.10;;
20393;SDS011;10356;50.544;9.642;2024-01-30T04:16:04;20.80;;;12.40;;
20393;SDS011;10356;50.544;9.642;2024-01-30T04:18:31;19.77;;;12.17;;
20393;SDS011;10356;50.544;9.642;2024-01-30T04:20:59;18.10;;;11.70;;
20393;SDS011;10356;50.544;9.642;2024-01-30T04:23:26;21.07;;;12.53;;
20393;SDS011;10356;50.544;9.642;2024-01-30T04:25:53;20.53;;;11.97;;
20393;SDS011;10356;50.544;9.642;2024-01-30T04:28:19;21.00;;;11.30;;
20393;SDS011;10356;50.544;9.642;2024-01-30T04:30:46;19.03;;;11.87;;
20393;SDS011;10356;50.544;9.642;2024-01-30T04:33:12;18.73;;;11.97;;
20393;SDS011;10356;50.544;9.642;2024-01-30T04:35:39;18.97;;;11.40;;
20393;SDS011;10356;50.544;9.642;2024-01-30T04:38:05;20.17;;;11.83;;
20393;SDS011;10356;50.544;9.642;2024-01-30T04:40:33;17.63;;;11.03;;
20393;SDS011;10356;50.544;9.642;2024-01-30T04:42:59;17.13;;;10.87;;
20393;SDS011;10356;50.544;9.642;2024-01-30T04:45:26;19.00;;;12.20;;
20393;SDS011;10356;50.544;9.642;2024-01-30T04:47:52;18.13;;;11.30;;
20393;SDS011;10356;50.544;9.642;2024-01-30T04:50:19;17.83;;;11.33;;
20393;SDS011;10356;50.544;9.642;2024-01-30T04:52:45;17.77;;;11.30;;
20393;SDS011;10356;50.544;9.642;2024-01-30T04:55:12;19.60;;;11.87;;
20393;SDS011;10356;50.544;9.642;2024-01-30T04:57:40;20.80;;;12.70;;
20393;SDS011;10356;50.544;9.642;2024-01-30T05:00:07;23.57;;;14.10;;
20393;SDS011;10356;50.544;9.642;2024-01-30T05:02:34;23.57;;;14.23;;
20393;SDS011;10356;50.544;9.642;2024-01-30T05:05:00;26.03;;;14.70;;
20393;SDS011;10356;50.544;9.642;2024-01-30T05:07:27;20.23;;;13.73;;
20393;SDS011;10356;50.544;9.642;2024-01-30T05:09:54;18.93;;;12.30;;
20393;SDS011;10356;50.544;9.642;2024-01-30T05:12:20;19.93;;;12.73;;
20393;SDS011;10356;50.544;9.642;2024-01-30T05:14:48;20.57;;;12.23;;
20393;SDS011;10356;50.544;9.642;2024-01-30T05:17:15;23.03;;;13.13;;
20393;SDS011;10356;50.544;9.642;2024-01-30T05:19:42;21.00;;;11.83;;
20393;SDS011;10356;50.544;9.642;2024-01-30T05:22:09;22.17;;;12.60;;
20393;SDS011;10356;50.544;9.642;2024-01-30T05:24:40;19.73;;;12.03;;
20393;SDS011;10356;50.544;9.642;2024-01-30T05:27:06;18.43;;;11.47;;
20393;SDS011;10356;50.544;9.642;2024-01-30T05:29:33;20.20;;;12.03;;
20393;SDS011;10356;50.544;9.642;2024-01-30T05:32:01;20.37;;;12.23;;
20393;SDS011;10356;50.544;9.642;2024-01-30T05:34:27;19.57;;;12.57;;
20393;SDS011;10356;50.544;9.642;2024-01-30T05:36:54;20.13;;;12.87;;
20393;SDS011;10356;50.544;9.642;2024-01-30T05:39:20;25.40;;;13.80;;
20393;SDS011;10356;50.544;9.642;2024-01-30T05:41:47;20.63;;;13.47;;
20393;SDS011;10356;50.544;9.642;2024-01-30T05:44:13;24.03;;;13.10;;
20393;SDS011;10356;50.544;9.642;2024-01-30T05:46:40;20.10;;;13.57;;
20393;SDS011;10356;50.544;9.642;2024-01-30T05:49:07;22.00;;;13.40;;
20393;SDS011;10356;50.544;9.642;2024-01-30T05:51:34;24.43;;;14.93;;
20393;SDS011;10356;50.544;9.642;2024-01-30T05:54:00;25.30;;;14.83;;
20393;SDS011;10356;50.544;9.642;2024-01-30T05:56:28;29.63;;;15.23;;
20393;SDS011;10356;50.544;9.642;2024-01-30T05:58:55;22.47;;;14.57;;
20393;SDS011;10356;50.544;9.642;2024-01-30T06:01:21;26.47;;;15.10;;
20393;SDS011;10356;50.544;9.642;2024-01-30T06:03:47;26.37;;;15.80;;
20393;SDS011;10356;50.544;9.642;2024-01-30T06:06:15;25.47;;;16.07;;
20393;SDS011;10356;50.544;9.642;2024-01-30T06:08:42;29.53;;;16.90;;
20393;SDS011;10356;50.544;9.642;2024-01-30T06:11:09;25.83;;;15.13;;
20393;SDS011;10356;50.544;9.642;2024-01-30T06:13:37;23.17;;;14.13;;
20393;SDS011;10356;50.544;9.642;2024-01-30T06:16:03;20.80;;;13.80;;
20393;SDS011;10356;50.544;9.642;2024-01-30T06:18:31;19.47;;;14.17;;
20393;SDS011;10356;50.544;9.642;2024-01-30T06:20:57;20.80;;;12.93;;
20393;SDS011;10356;50.544;9.642;2024-01-30T06:23:25;21.20;;;11.73;;
20393;SDS011;10356;50.544;9.642;2024-01-30T06:25:51;19.93;;;12.00;;
20393;SDS011;10356;50.544;9.642;2024-01-30T06:28:18;21.63;;;12.57;;
20393;SDS011;10356;50.544;9.642;2024-01-30T06:30:44;19.03;;;12.10;;
20393;SDS011;10356;50.544;9.642;2024-01-30T06:33:11;18.17;;;12.50;;
20393;SDS011;10356;50.544;9.642;2024-01-30T06:35:38;20.37;;;11.10;;
20393;SDS011;10356;50.544;9.642;2024-01-30T06:38:05;19.73;;;11.67;;
20393;SDS011;10356;50.544;9.642;2024-01-30T06:40:33;19.27;;;11.60;;
20393;SDS011;10356;50.544;9.642;2024-01-30T06:42:59;19.63;;;11.87;;
20393;SDS011;10356;50.544;9.642;2024-01-30T06:45:26;19.13;;;11.50;;
20393;SDS011;10356;50.544;9.642;2024-01-30T06:47:52;22.17;;;11.80;;
20393;SDS011;10356;50.544;9.642;2024-01-30T06:50:18;22.60;;;13.37;;
20393;SDS011;10356;50.544;9.642;2024-01-30T06:52:45;22.20;;;14.43;;
20393;SDS011;10356;50.544;9.642;2024-01-30T06:55:11;22.10;;;12.67;;
20393;SDS011;10356;50.544;9.642;2024-01-30T06:57:39;20.47;;;13.47;;
20393;SDS011;10356;50.544;9.642;2024-01-30T07:00:06;34.43;;;20.90;;
20393;SDS011;10356;50.544;9.642;2024-01-30T07:02:33;31.40;;;17.97;;
20393;SDS011;10356;50.544;9.642;2024-01-30T07:05:00;26.50;;;14.93;;
20393;SDS011;10356;50.544;9.642;2024-01-30T07:07:26;19.17;;;12.97;;
20393;SDS011;10356;50.544;9.642;2024-01-30T07:09:53;25.00;;;14.63;;
20393;SDS011;10356;50.544;9.642;2024-01-30T07:12:21;25.47;;;14.80;;
20393;SDS011;10356;50.544;9.642;2024-01-30T07:14:49;21.87;;;15.07;;
20393;SDS011;10356;50.544;9.642;2024-01-30T07:17:15;24.20;;;15.43;;
20393;SDS011;10356;50.544;9.642;2024-01-30T07:19:42;22.63;;;13.63;;
20393;SDS011;10356;50.544;9.642;2024-01-30T07:22:08;21.50;;;13.57;;
20393;SDS011;10356;50.544;9.642;2024-01-30T07:24:35;19.20;;;12.37;;
20393;SDS011;10356;50.544;9.642;2024-01-30T07:27:02;22.27;;;12.13;;
20393;SDS011;10356;50.544;9.642;2024-01-30T07:29:28;19.03;;;12.63;;
20393;SDS011;10356;50.544;9.642;2024-01-30T07:31:56;26.57;;;15.03;;
20393;SDS011;10356;50.544;9.642;2024-01-30T07:34:23;20.40;;;13.07;;
20393;SDS011;10356;50.544;9.642;2024-01-30T07:36:49;19.83;;;13.37;;
20393;SDS011;10356;50.544;9.642;2024-01-30T07:39:15;19.80;;;13.83;;
20393;SDS011;10356;50.544;9.642;2024-01-30T07:41:42;21.83;;;14.03;;
20393;SDS011;10356;50.544;9.642;2024-01-30T07:44:09;22.37;;;14.80;;
20393;SDS011;10356;50.544;9.642;2024-01-30T07:46:35;25.10;;;14.63;;
20393;SDS011;10356;50.544;9.642;2024-01-30T07:49:03;23.97;;;14.83;;
20393;SDS011;10356;50.544;9.642;2024-01-30T07:51:29;23.67;;;15.43;;
20393;SDS011;10356;50.544;9.642;2024-01-30T07:53:57;25.47;;;15.30;;
20393;SDS011;10356;50.544;9.642;2024-01-30T07:56:24;27.70;;;16.37;;
20393;SDS011;10356;50.544;9.642;2024-01-30T07:58:50;25.80;;;17.20;;
20393;SDS011;10356;50.544;9.642;2024-01-30T08:01:18;28.60;;;16.57;;
20393;SDS011;10356;50.544;9.642;2024-01-30T08:03:44;26.57;;;17.47;;
20393;SDS011;10356;50.544;9.642;2024-01-30T08:06:12;25.77;;;15.23;;
20393;SDS011;10356;50.544;9.642;2024-01-30T08:08:39;29.07;;;17.13;;
20393;SDS011;10356;50.544;9.642;2024-01-30T08:11:05;24.60;;;16.43;;
20393;SDS011;10356;50.544;9.642;2024-01-30T08:13:32;29.67;;;16.83;;
20393;SDS011;10356;50.544;9.642;2024-01-30T08:15:59;27.23;;;16.53;;
20393;SDS011;10356;50.544;9.642;2024-01-30T08:18:25;26.03;;;16.37;;
20393;SDS011;10356;50.544;9.642;2024-01-30T08:20:52;26.97;;;17.23;;
20393;SDS011;10356;50.544;9.642;2024-01-30T08:23:20;25.30;;;16.17;;
20393;SDS011;10356;50.544;9.642;2024-01-30T08:25:46;24.17;;;15.57;;
20393;SDS011;10356;50.544;9.642;2024-01-30T08:28:13;25.13;;;15.53;;
20393;SDS011;10356;50.544;9.642;2024-01-30T08:30:39;22.67;;;15.10;;
20393;SDS011;10356;50.544;9.642;2024-01-30T08:33:06;23.40;;;14.63;;
20393;SDS011;10356;50.544;9.642;2024-01-30T08:35:32;20.57;;;14.03;;
20393;SDS011;10356;50.544;9.642;2024-01-30T08:37:59;25.33;;;15.37;;
20393;SDS011;10356;50.544;9.642;2024-01-30T08:40:27;24.33;;;15.23;;
20393;SDS011;10356;50.544;9.642;2024-01-30T08:42:54;20.77;;;14.27;;
20393;SDS011;10356;50.544;9.642;2024-01-30T08:45:21;25.30;;;14.50;;
20393;SDS011;10356;50.544;9.642;2024-01-30T08:47:47;22.53;;;15.57;;
20393;SDS011;10356;50.544;9.642;2024-01-30T08:50:14;23.80;;;15.03;;
20393;SDS011;10356;50.544;9.642;2024-01-30T08:52:40;86.93;;;50.47;;
20393;SDS011;10356;50.544;9.642;2024-01-30T08:55:07;58.47;;;35.37;;
20393;SDS011;10356;50.544;9.642;2024-01-30T08:57:35;49.93;;;28.87;;
20393;SDS011;10356;50.544;9.642;2024-01-30T09:00:02;40.50;;;26.37;;
20393;SDS011;10356;50.544;9.642;2024-01-30T09:02:31;37.67;;;24.00;;
20393;SDS011;10356;50.544;9.642;2024-01-30T09:04:58;43.17;;;24.03;;
20393;SDS011;10356;50.544;9.642;2024-01-30T09:07:24;31.93;;;21.30;;
20393;SDS011;10356;50.544;9.642;2024-01-30T09:09:51;27.47;;;19.50;;
20393;SDS011;10356;50.544;9.642;2024-01-30T09:12:17;26.83;;;17.60;;
20393;SDS011;10356;50.544;9.642;2024-01-30T09:14:45;26.60;;;15.43;;
20393;SDS011;10356;50.544;9.642;2024-01-30T09:17:12;22.67;;;15.33;;
20393;SDS011;10356;50.544;9.642;2024-01-30T09:19:38;21.93;;;14.37;;
20393;SDS011;10356;50.544;9.642;2024-01-30T09:22:06;37.60;;;20.30;;
20393;SDS011;10356;50.544;9.642;2024-01-30T09:24:32;33.97;;;18.77;;
20393;SDS011;10356;50.544;9.642;2024-01-30T09:26:59;29.63;;;20.37;;
20393;SDS011;10356;50.544;9.642;2024-01-30T09:29:26;26.90;;;17.13;;
20393;SDS011;10356;50.544;9.642;2024-01-30T09:31:54;20.63;;;13.17;;
20393;SDS011;10356;50.544;9.642;2024-01-30T09:34:20;17.47;;;13.20;;
20393;SDS011;10356;50.544;9.642;2024-01-30T09:36:47;19.40;;;12.53;;
20393;SDS011;10356;50.544;9.642;2024-01-30T09:39:13;19.50;;;13.07;;
20393;SDS011;10356;50.544;9.642;2024-01-30T09:41:42;23.47;;;15.43;;
20393;SDS011;10356;50.544;9.642;2024-01-30T09:44:11;28.50;;;15.37;;
20393;SDS011;10356;50.544;9.642;2024-01-30T09:46:38;37.33;;;21.87;;
20393;SDS011;10356;50.544;9.642;2024-01-30T09:49:06;31.73;;;18.33;;
20393;SDS011;10356;50.544;9.642;2024-01-30T09:51:35;48.10;;;26.57;;
20393;SDS011;10356;50.544;9.642;2024-01-30T09:54:02;23.07;;;14.57;;
20393;SDS011;10356;50.544;9.642;2024-01-30T09:56:29;22.47;;;12.07;;
20393;SDS011;10356;50.544;9.642;2024-01-30T09:58:55;14.33;;;9.63;;
20393;SDS011;10356;50.544;9.642;2024-01-30T10:01:22;17.20;;;10.20;;
20393;SDS011;10356;50.544;9.642;2024-01-30T10:03:50;12.60;;;9.70;;
20393;SDS011;10356;50.544;9.642;2024-01-30T10:06:19;13.60;;;8.57;;
20393;SDS011;10356;50.544;9.642;2024-01-30T10:08:47;12.87;;;8.20;;
20393;SDS011;10356;50.544;9.642;2024-01-30T10:11:14;14.27;;;8.73;;
20393;SDS011;10356;50.544;9.642;2024-01-30T10:13:40;10.10;;;7.77;;
20393;SDS011;10356;50.544;9.642;2024-01-30T10:16:06;11.73;;;7.73;;
20393;SDS011;10356;50.544;9.642;2024-01-30T10:18:33;11.33;;;8.00;;
20393;SDS011;10356;50.544;9.642;2024-01-30T10:21:00;13.10;;;8.43;;
20393;SDS011;10356;50.544;9.642;2024-01-30T10:23:28;10.50;;;7.93;;
20393;SDS011;10356;50.544;9.642;2024-01-30T10:25:55;11.97;;;8.70;;
20393;SDS011;10356;50.544;9.642;2024-01-30T10:28:21;12.70;;;7.67;;
20393;SDS011;10356;50.544;9.642;2024-01-30T10:30:56;11.23;;;7.10;;
20393;SDS011;10356;50.544;9.642;2024-01-30T10:33:24;8.73;;;7.07;;
20393;SDS011;10356;50.544;9.642;2024-01-30T10:35:51;12.67;;;7.10;;
20393;SDS011;10356;50.544;9.642;2024-01-30T10:38:18;11.07;;;7.37;;
20393;SDS011;10356;50.544;9.642;2024-01-30T10:40:47;9.93;;;7.57;;
20393;SDS011;10356;50.544;9.642;2024-01-30T10:43:18;10.43;;;6.83;;
20393;SDS011;10356;50.544;9.642;2024-01-30T10:45:48;9.70;;;6.60;;
20393;SDS011;10356;50.544;9.642;2024-01-30T10:48:19;9.40;;;6.83;;
20393;SDS011;10356;50.544;9.642;2024-01-30T10:50:52;12.33;;;6.90;;
20393;SDS011;10356;50.544;9.642;2024-01-30T10:53:21;11.97;;;7.23;;
20393;SDS011;10356;50.544;9.642;2024-01-30T10:55:50;12.07;;;6.90;;
20393;SDS011;10356;50.544;9.642;2024-01-30T10:58:17;8.40;;;6.77;;
20393;SDS011;10356;50.544;9.642;2024-01-30T11:00:44;10.13;;;7.07;;
20393;SDS011;10356;50.544;9.642;2024-01-30T11:03:11;9.27;;;6.47;;
20393;SDS011;10356;50.544;9.642;2024-01-30T11:05:40;9.03;;;6.87;;
20393;SDS011;10356;50.544;9.642;2024-01-30T11:08:10;12.33;;;7.50;;
20393;SDS011;10356;50.544;9.642;2024-01-30T11:10:44;8.83;;;6.57;;
20393;SDS011;10356;50.544;9.642;2024-01-30T11:13:12;7.87;;;6.00;;
20393;SDS011;10356;50.544;9.642;2024-01-30T11:15:39;10.63;;;7.07;;
20393;SDS011;10356;50.544;9.642;2024-01-30T11:18:06;9.57;;;6.17;;
20393;SDS011;10356;50.544;9.642;2024-01-30T11:20:32;9.67;;;6.57;;
20393;SDS011;10356;50.544;9.642;2024-01-30T11:23:01;10.27;;;6.67;;
20393;SDS011;10356;50.544;9.642;2024-01-30T11:25:31;9.70;;;6.77;;
20393;SDS011;10356;50.544;9.642;2024-01-30T11:27:58;8.80;;;6.30;;
20393;SDS011;10356;50.544;9.642;2024-01-30T11:30:26;7.90;;;5.70;;
20393;SDS011;10356;50.544;9.642;2024-01-30T11:33:04;8.33;;;5.90;;
20393;SDS011;10356;50.544;9.642;2024-01-30T11:35:32;8.60;;;5.90;;
20393;SDS011;10356;50.544;9.642;2024-01-30T11:37:59;9.77;;;6.30;;
20393;SDS011;10356;50.544;9.642;2024-01-30T11:40:27;9.87;;;5.87;;
20393;SDS011;10356;50.544;9.642;2024-01-30T11:42:54;8.23;;;6.10;;
20393;SDS011;10356;50.544;9.642;2024-01-30T11:45:21;7.80;;;5.90;;
20393;SDS011;10356;50.544;9.642;2024-01-30T11:47:49;7.97;;;5.70;;
20393;SDS011;10356;50.544;9.642;2024-01-30T11:50:16;11.83;;;6.70;;
20393;SDS011;10356;50.544;9.642;2024-01-30T11:52:42;9.73;;;5.97;;
20393;SDS011;10356;50.544;9.642;2024-01-30T11:55:09;12.27;;;6.90;;
20393;SDS011;10356;50.544;9.642;2024-01-30T11:57:36;9.67;;;5.97;;
20393;SDS011;10356;50.544;9.642;2024-01-30T12:00:03;10.93;;;7.20;;
20393;SDS011;10356;50.544;9.642;2024-01-30T12:02:35;12.70;;;7.90;;
20393;SDS011;10356;50.544;9.642;2024-01-30T12:05:04;8.43;;;5.97;;
20393;SDS011;10356;50.544;9.642;2024-01-30T12:07:31;9.50;;;5.77;;
20393;SDS011;10356;50.544;9.642;2024-01-30T12:09:58;9.57;;;6.87;;
20393;SDS011;10356;50.544;9.642;2024-01-30T12:12:25;9.13;;;6.47;;
20393;SDS011;10356;50.544;9.642;2024-01-30T12:14:52;8.10;;;5.90;;
20393;SDS011;10356;50.544;9.642;2024-01-30T12:17:27;11.07;;;6.97;;
20393;SDS011;10356;50.544;9.642;2024-01-30T12:20:02;9.47;;;6.30;;
20393;SDS011;10356;50.544;9.642;2024-01-30T12:22:32;10.13;;;6.20;;
20393;SDS011;10356;50.544;9.642;2024-01-30T12:25:00;8.27;;;6.40;;
20393;SDS011;10356;50.544;9.642;2024-01-30T12:27:26;12.13;;;6.73;;
20393;SDS011;10356;50.544;9.642;2024-01-30T12:29:56;8.33;;;6.13;;
20393;SDS011;10356;50.544;9.642;2024-01-30T12:32:23;11.50;;;6.50;;
20393;SDS011;10356;50.544;9.642;2024-01-30T12:34:49;10.07;;;6.60;;
20393;SDS011;10356;50.544;9.642;2024-01-30T12:37:17;9.10;;;6.37;;
20393;SDS011;10356;50.544;9.642;2024-01-30T12:39:47;10.80;;;6.83;;
20393;SDS011;10356;50.544;9.642;2024-01-30T12:42:14;10.53;;;6.30;;
20393;SDS011;10356;50.544;9.642;2024-01-30T12:44:40;8.23;;;6.03;;
20393;SDS011;10356;50.544;9.642;2024-01-30T12:47:08;8.23;;;6.23;;
20393;SDS011;10356;50.544;9.642;2024-01-30T12:49:35;9.33;;;6.87;;
20393;SDS011;10356;50.544;9.642;2024-01-30T12:52:01;11.20;;;6.83;;
20393;SDS011;10356;50.544;9.642;2024-01-30T12:54:29;11.53;;;7.83;;
20393;SDS011;10356;50.544;9.642;2024-01-30T12:56:56;11.60;;;7.23;;
20393;SDS011;10356;50.544;9.642;2024-01-30T12:59:23;9.90;;;7.40;;
20393;SDS011;10356;50.544;9.642;2024-01-30T13:01:49;10.03;;;6.90;;
20393;SDS011;10356;50.544;9.642;2024-01-30T13:04:16;9.30;;;6.87;;
20393;SDS011;10356;50.544;9.642;2024-01-30T13:06:42;11.03;;;6.90;;
20393;SDS011;10356;50.544;9.642;2024-01-30T13:09:09;13.17;;;6.73;;
20393;SDS011;10356;50.544;9.642;2024-01-30T13:11:36;11.40;;;6.57;;
20393;SDS011;10356;50.544;9.642;2024-01-30T13:14:03;8.57;;;6.20;;
20393;SDS011;10356;50.544;9.642;2024-01-30T13:16:29;9.80;;;6.83;;
20393;SDS011;10356;50.544;9.642;2024-01-30T13:18:56;12.30;;;6.70;;
20393;SDS011;10356;50.544;9.642;2024-01-30T13:21:22;9.03;;;6.50;;
20393;SDS011;10356;50.544;9.642;2024-01-30T13:23:49;9.40;;;6.90;;
20393;SDS011;10356;50.544;9.642;2024-01-30T13:26:18;14.00;;;7.20;;
20393;SDS011;10356;50.544;9.642;2024-01-30T13:28:46;14.70;;;8.40;;
20393;SDS011;10356;50.544;9.642;2024-01-30T13:31:12;13.27;;;8.67;;
20393;SDS011;10356;50.544;9.642;2024-01-30T13:33:39;14.30;;;7.70;;
20393;SDS011;10356;50.544;9.642;2024-01-30T13:36:06;13.57;;;8.40;;
20393;SDS011;10356;50.544;9.642;2024-01-30T13:38:33;13.57;;;8.67;;
20393;SDS011;10356;50.544;9.642;2024-01-30T13:41:00;14.80;;;7.73;;
20393;SDS011;10356;50.544;9.642;2024-01-30T13:43:26;12.13;;;7.33;;
20393;SDS011;10356;50.544;9.642;2024-01-30T13:45:54;12.07;;;8.63;;
20393;SDS011;10356;50.544;9.642;2024-01-30T13:48:21;11.67;;;8.00;;
20393;SDS011;10356;50.544;9.642;2024-01-30T13:50:47;12.30;;;7.80;;
20393;SDS011;10356;50.544;9.642;2024-01-30T13:53:14;11.17;;;7.50;;
20393;SDS011;10356;50.544;9.642;2024-01-30T13:55:40;11.67;;;7.10;;
20393;SDS011;10356;50.544;9.642;2024-01-30T13:58:07;14.17;;;8.33;;
20393;SDS011;10356;50.544;9.642;2024-01-30T14:00:33;13.43;;;9.47;;
20393;SDS011;10356;50.544;9.642;2024-01-30T14:03:01;15.27;;;10.03;;
20393;SDS011;10356;50.544;9.642;2024-01-30T14:05:28;9.40;;;6.63;;
20393;SDS011;10356;50.544;9.642;2024-01-30T14:07:55;9.77;;;6.80;;
20393;SDS011;10356;50.544;9.642;2024-01-30T14:10:22;8.40;;;6.57;;
20393;SDS011;10356;50.544;9.642;2024-01-30T14:12:49;12.40;;;7.27;;
20393;SDS011;10356;50.544;9.642;2024-01-30T14:15:16;9.87;;;6.30;;
20393;SDS011;10356;50.544;9.642;2024-01-30T14:17:43;11.13;;;7.13;;
20393;SDS011;10356;50.544;9.642;2024-01-30T14:20:11;9.60;;;6.90;;
20393;SDS011;10356;50.544;9.642;2024-01-30T14:22:38;9.53;;;6.40;;
20393;SDS011;10356;50.544;9.642;2024-01-30T14:25:05;13.13;;;7.93;;
20393;SDS011;10356;50.544;9.642;2024-01-30T14:27:32;12.70;;;7.57;;